Nearby METAR Reports

 

KSJC - San Jose, California, USA
Distance from station: NE 9mi, 14km
Updated: Fri, 22-Aug-2014 9:53am PDT
Few Clouds
Few Clouds
 Wind from E
Wind: E 9 mph , 15 km/h
Temperature: 70°F , 21°C
Dew Point: 55°F , 13°C
Humidity: 60%
Barometer: 29.93 inHg , 1013.5 hPa
Clouds: Few Clouds
Visibility: 10 miles , 16 km
Cloud details: Few Clouds 800 ft
2014/08/22 16:53 KSJC 221653Z 10008KT 10SM FEW008 21/13 A2993 RMK AO2 SLP134 T02060128
KNUQ - Moffett Nas/Mtn, California, USA
Distance from station: N 9mi, 14km
Updated: Fri, 22-Aug-2014 9:56am PDT
Clear
Clear
 Wind from calm
Wind: Calm
Temperature: 70°F , 21°C
Dew Point: 57°F , 14°C
Humidity: 64%
Barometer: 29.94 inHg , 1013.9 hPa
Clouds: Clear
Visibility: 10 miles , 16 km
2014/08/22 16:56 KNUQ 221656Z 00000KT 10SM CLR 21/14 A2994 RMK AO2 SLP140 T02110144
 
KPAO - Palo Alto, California, USA
Distance from station: NNW 14mi, 23km
Updated: Fri, 22-Aug-2014 9:47am PDT
Few Clouds
Few Clouds
 Wind from NE
Wind: NE 7 mph , 11 km/h
Barometer: 29.93 inHg , 1013.5 hPa
Clouds: Few Clouds
Visibility: 15 miles , 24 km
Cloud details: Few Clouds 1500 ft
2014/08/22 16:47 KPAO 221647Z 05006KT 15SM FEW015 A2993
KRHV - San Jose/Reid, California, USA
Distance from station: ENE 12mi, 19km
Updated: Fri, 22-Aug-2014 9:52am PDT
Clear
Clear
 Wind from W
Wind: W 6 mph , 9 km/h
Temperature: 72°F , 22°C
Dew Point: 55°F , 13°C
Humidity: 57%
Barometer: 29.96 inHg , 1014.6 hPa
Clouds: Clear
Visibility: 10 miles , 16 km
2014/08/22 16:52 KRHV 221652Z 26005KT 10SM SKC 22/13 A2996
 
KOAK - Oakland, California, USA
Distance from station: NNW 31mi, 50km
Updated: Fri, 22-Aug-2014 9:53am PDT
Few Clouds
Few Clouds
 Wind from varies
Wind: varies 3 mph , 6 km/h
Temperature: 66°F , 19°C
Dew Point: 57°F , 14°C
Humidity: 73%
Barometer: 29.94 inHg , 1013.9 hPa
Clouds: Few Clouds
Visibility: 10 miles , 16 km
Cloud details: Few Clouds 1300 ft
2014/08/22 16:53 KOAK 221653Z VRB03KT 10SM FEW013 19/14 A2994 RMK AO2 SLP137 T01940139
KSQL - San Carlos Airpo, California, USA
Distance from station: NW 21mi, 34km
Updated: Fri, 22-Aug-2014 9:47am PDT
Few Clouds
Few Clouds
 Wind from calm
Wind: Calm
Temperature: 68°F , 20°C
Dew Point: 57°F , 14°C
Humidity: 69%
Barometer: 29.94 inHg , 1013.9 hPa
Clouds: Few Clouds
Visibility: 10 miles , 16 km
Cloud details: Few Clouds 2500 ft
2014/08/22 16:47 KSQL 221647Z 00000KT 10SM FEW025 20/14 A2994
 
KSFO - San Francisco, California, USA
Distance from station: NW 30mi, 49km
Updated: Fri, 22-Aug-2014 9:56am PDT
Few Clouds
Few Clouds
 Wind from N
Wind: N 7 mph , 11 km/h
Temperature: 68°F , 20°C
Dew Point: 61°F , 16°C
Humidity: 78%
Barometer: 29.93 inHg , 1013.5 hPa
Clouds: Few Clouds
Visibility: 10 miles , 16 km
Cloud details: Few Clouds 1000 ft
2014/08/22 16:56 KSFO 221656Z 01006KT 10SM FEW010 20/16 A2993 RMK AO2 SLP136 T02000156 $
KE16 - San Martin, California, USA
Distance from station: ESE 27mi, 43km
Updated: Fri, 22-Aug-2014 10:15am PDT
Clear
Clear
 Wind from SE
Wind: SE 14 mph , 22 km/h
Temperature: 66°F , 19°C
Dew Point: 55°F , 13°C
Humidity: 68%
Barometer: 29.97 inHg , 1014.9 hPa
Clouds: Clear
Visibility: 10 miles , 16 km
2014/08/22 17:15 KE16 221715Z AUTO 13012KT 10SM CLR 19/13 A2997 RMK AO2
 
KWVI - Watsonville, California, USA
Distance from station: SSE 27mi, 44km
Updated: Fri, 22-Aug-2014 10:26am PDT
Overcast
Overcast
 Wind from varies
Wind: varies 7 mph , 11 km/h
Temperature: 66°F , 19°C
Dew Point: 57°F , 14°C
Humidity: 73%
Barometer: 29.98 inHg , 1015.2 hPa
Clouds: Overcast
Visibility: 10 miles , 16 km
Cloud details: Overcast 1000 ft
2014/08/22 17:26 KWVI 221726Z AUTO VRB06KT 10SM OVC010 19/14 A2998 RMK AO2 T01890139
KHAF - Half Moon Bay, California, USA
Distance from station: WNW 31mi, 50km
Updated: Fri, 22-Aug-2014 10:35am PDT
Overcast
Overcast
 Wind from S
Wind: S 12 mph , 19 km/h
Temperature: 63°F , 17°C
Dew Point: 57°F , 14°C
Humidity: 83%
Barometer: 29.97 inHg , 1014.9 hPa
Clouds: Overcast
Visibility: 8 miles , 13 km
Cloud details: Overcast 1400 ft
2014/08/22 17:35 KHAF 221735Z AUTO 17010KT 8SM OVC014 17/14 A2997 RMK AO2
 
KHWD - Hayward, California, USA
Distance from station: N 28mi, 44km
Updated: Fri, 22-Aug-2014 9:54am PDT
Clear
Clear
 Wind from WSW
Wind: WSW 5 mph , 7 km/h
Temperature: 70°F , 21°C
Dew Point: 61°F , 16°C
Humidity: 73%
Barometer: 29.93 inHg , 1013.5 hPa
Clouds: Clear
Visibility: 10 miles , 16 km
2014/08/22 16:54 KHWD 221654Z 25004KT 10SM CLR 21/16 A2993 RMK AO2 SLP144 T02060156
KLVK - Livermore, California, USA
Distance from station: NNE 31mi, 51km
Updated: Fri, 22-Aug-2014 9:53am PDT
Clear
Clear
 Wind from NW
Wind: NW 6 mph , 9 km/h
Temperature: 70°F , 21°C
Dew Point: 57°F , 14°C
Humidity: 64%
Barometer: 29.91 inHg , 1012.9 hPa
Clouds: Clear
Visibility: 10 miles , 16 km
2014/08/22 16:53 KLVK 221653Z 31005KT 10SM CLR 21/14 A2991 RMK AO2 SLP125 T02110139